Latest Coastal Weather Observations for Melbourne (Olympic Park)

IDV60701

Issued at 11:41 am EDT Sunday 22 October 2017 (issued every 10 minutes, with the page automatically refreshed every 10 minutes)

About coastal observations | Map of coastal stations | Coastal observations for VIC | Marine services | Other Formats
Station Details ID: 086338 Name: MELBOURNE (OLYMPIC PARK) Lat: -37.83 Lon: 144.98 Height: 7.53 m
Data from the previous 72 hours. | See also: Recent months at Melbourne (Olympic Park)
Date/Time
EDT
Temp
°C
Wind Pressure Rain since
9am
mm
Weather Cloud Vis
km
Sea
Height
m
Swell
Dir  Spd
kts
Gust
kts
hPa Trend Height
m
Period
s
Dir
22/11:30am 14.6 SSW 5 8 1018.7 - 0.0 - - 10 - - - -
22/11:00am 14.6 SSW 6 10 1018.7 - 0.0 - - 10 - - - -
22/10:30am 14.0 SSW 6 12 1018.9 - 0.0 - - 10 - - - -
22/10:00am 13.8 SW 6 11 1018.8 - 0.0 - - 10 - - - -
22/09:30am 13.2 SW 4 11 1018.8 - 0.0 - - 10 - - - -
22/09:00am 12.7 WSW 6 11 1018.6 - 0.0 - - 10 - - - -
22/08:30am 12.7 WSW 3 7 1018.5 - 0.0 - - 10 - - - -
22/08:00am 11.5 WSW 5 8 1018.5 - 0.0 - - 10 - - - -
22/07:30am 11.5 WSW 6 11 1018.3 - 0.0 - - 10 - - - -
22/07:00am 11.5 WSW 4 9 1018.1 - 0.0 - - 10 - - - -
22/06:30am 11.5 W 5 9 1017.8 - 0.0 - - 10 - - - -
22/06:00am 11.4 W 4 10 1017.8 - 0.0 Recent precip. - 10 - - - -
22/05:30am 11.4 WSW 5 9 1017.9 - 0.0 - - 10 - - - -
22/05:00am 11.1 W 5 8 1017.8 - 0.0 - - 10 - - - -
22/04:30am 11.4 W 6 11 1018.1 - 0.0 - - 10 - - - -
22/04:00am 11.7 W 4 9 1018.4 - 0.0 - - 10 - - - -
22/03:30am 11.6 W 6 10 1018.3 - 0.0 - - 10 - - - -
22/03:00am 11.7 W 5 13 1019.1 - 0.0 - - 10 - - - -
22/02:30am 11.9 W 6 10 1019.2 - 0.0 - - 10 - - - -
22/02:00am 12.3 WSW 4 9 1019.6 - 0.0 - - 10 - - - -
22/01:30am 12.0 W 3 8 1019.9 - 0.0 - - 10 - - - -
22/01:00am 11.7 W 3 8 1020.3 - 0.0 - - 10 - - - -
22/12:30am 11.7 WSW 4 9 1020.6 - 0.0 - - 10 - - - -
22/12:00am 11.8 W 6 11 1020.7 - 0.0 - - 10 - - - -
 
Date/Time
EDT
Temp
°C
Wind Pressure Rain since
9am
mm
Weather Cloud Vis
km
Sea
Height
m
Swell
Dir  Spd
kts
Gust
kts
hPa Trend Height
m
Period
s
Dir
21/11:30pm 12.3 WSW 7 13 1020.9 - 0.0 - - 10 - - - -
21/11:00pm 12.7 W 4 8 1021.0 - 0.0 - - 10 - - - -
21/10:30pm 13.1 WSW 5 8 1021.2 - 0.0 - - 10 - - - -
21/10:00pm 13.2 S 5 11 1021.3 - 0.0 - - 10 - - - -
21/09:30pm 13.4 SSW 6 11 1021.6 - 0.0 - - 10 - - - -
21/09:00pm 13.2 SSW 6 11 1021.7 - 0.0 Recent precip. - 10 - - - -
21/08:30pm 13.2 S 7 13 1021.8 - 0.0 - - 10 - - - -
21/08:00pm 13.2 S 6 11 1021.7 - 0.0 - - 10 - - - -
21/07:30pm 12.6 S 5 8 1021.9 - 0.0 - - 10 - - - -
21/07:00pm 13.4 S 7 15 1021.7 - 0.0 - - 10 - - - -
21/06:30pm 13.3 S 7 11 1021.7 - 0.0 - - 10 - - - -
21/06:00pm 14.0 S 5 8 1021.8 - 0.0 - - 10 - - - -
21/05:30pm 14.7 S 7 12 1022.0 - 0.0 - - 10 - - - -
21/05:00pm 13.8 S 7 11 1022.1 - 0.0 - - 10 - - - -
21/04:30pm 14.5 SSW 6 11 1022.4 - 0.0 - - 10 - - - -
21/04:00pm 13.7 S 8 13 1022.7 - 0.0 - - 10 - - - -
21/03:30pm 14.1 S 7 11 1022.9 - 0.0 - - 10 - - - -
21/03:00pm 14.8 SSE 3 7 1023.2 - 0.0 - - 10 - - - -
21/02:30pm 13.1 SSE 7 12 1023.8 - 0.0 - - 10 - - - -
21/02:00pm 13.8 S 6 11 1024.0 - 0.0 - - 10 - - - -
21/01:30pm 14.0 S 7 12 1024.3 - 0.0 - - 10 - - - -
21/01:00pm 13.4 SSW 7 13 1024.8 - 0.0 - - 10 - - - -
21/12:30pm 13.5 SSW 8 15 1025.1 - 0.0 - - 10 - - - -
21/12:00pm 13.2 S 8 12 1025.4 - 0.0 - - 10 - - - -
21/11:30am 12.7 SSW 8 15 1025.7 - 0.0 - - 10 - - - -
21/11:00am 13.8 SSW 7 14 1025.6 - 0.0 - - 10 - - - -
21/10:30am 12.8 WSW 4 11 1025.9 - 0.0 - - 10 - - - -
21/10:00am 11.9 SW 6 12 1026.1 - 0.0 - - 10 - - - -
21/09:30am 11.5 W 5 9 1026.1 - 0.0 - - 10 - - - -
21/09:00am 11.8 WSW 5 11 1026.1 - 0.0 - - 10 - - - -
21/08:30am 11.7 SW 3 9 1026.1 - 0.0 - - 10 - - - -
21/08:00am 11.6 W 4 7 1026.0 - 0.0 - - 10 - - - -
21/07:30am 11.7 SSW 5 11 1026.1 - 0.0 - - 10 - - - -
21/07:00am 11.3 W 4 6 1026.1 - 0.0 - - 10 - - - -
21/06:30am 11.3 SW 6 9 1026.1 - 0.0 - - 10 - - - -
21/06:00am 12.0 SSW 6 11 1026.1 - 0.0 - - 10 - - - -
21/05:30am 12.1 S 4 7 1026.0 - 0.0 - - 10 - - - -
21/05:00am 12.1 SSW 7 13 1026.1 - 0.0 - - 10 - - - -
21/04:30am 12.1 SSW 5 11 1026.3 - 0.0 - - 10 - - - -
21/04:00am 12.1 SSW 6 15 1026.5 - 0.0 - - 10 - - - -
21/03:30am 12.3 S 7 11 1026.7 - 0.0 - - 10 - - - -
21/03:00am 12.5 SSW 7 13 1026.9 - 0.0 - - 10 - - - -
21/02:30am 12.3 S 7 12 1027.1 - 0.0 - - 10 - - - -
21/02:00am 12.4 S 6 10 1027.5 - 0.0 - - 10 - - - -
21/01:30am 12.4 SSE 5 10 1027.7 - 0.0 - - 10 - - - -
21/01:00am 12.5 S 5 11 1028.0 - 0.0 - - 10 - - - -
21/12:30am 12.5 S 7 14 1028.3 - 0.0 - - 10 - - - -
21/12:00am 12.7 S 6 13 1028.4 - 0.0 - - 10 - - - -
 
Date/Time
EDT
Temp
°C
Wind Pressure Rain since
9am
mm
Weather Cloud Vis
km
Sea
Height
m
Swell
Dir  Spd
kts
Gust
kts
hPa Trend Height
m
Period
s
Dir
20/11:30pm 12.8 S 6 13 1028.6 - 0.0 - - 10 - - - -
20/11:00pm 12.7 SSW 7 15 1028.7 - 0.0 - - 10 - - - -
20/10:30pm 12.7 S 7 14 1028.9 - 0.0 - - 10 - - - -
20/10:00pm 12.7 S 7 12 1029.1 - 0.0 - - 10 - - - -
20/09:30pm 12.8 S 7 14 1029.0 - 0.0 - - 10 - - - -
20/09:00pm 12.8 S 7 14 1029.1 - 0.0 - - 10 - - - -
20/08:30pm 12.8 S 7 14 1028.8 - 0.0 - - 10 - - - -
20/08:00pm 13.1 SSE 8 16 1028.5 - 0.0 - - 10 - - - -
20/07:30pm 13.3 S 8 15 1028.3 - 0.0 - - 10 - - - -
20/07:00pm 13.3 S 8 16 1028.2 - 0.0 - - 10 - - - -
20/06:30pm 13.6 S 10 19 1028.1 - 0.0 - - 10 - - - -
20/06:00pm 14.1 S 9 19 1027.9 - 0.0 - - 10 - - - -
20/05:30pm 14.3 S 10 16 1027.8 - 0.0 - - 10 - - - -
20/05:00pm 14.7 SSW 11 19 1027.7 - 0.0 - - 10 - - - -
20/04:30pm 14.8 SSW 9 19 1027.6 - 0.0 - - 10 - - - -
20/04:00pm 15.5 S 10 18 1027.6 - 0.0 - - 10 - - - -
20/03:30pm 15.4 S 8 15 1027.7 - 0.0 - - 10 - - - -
20/03:00pm 15.3 S 11 20 1027.9 - 0.0 - - 10 - - - -
20/02:30pm 15.4 SSW 10 17 1028.0 - 0.0 - - 10 - - - -
20/02:00pm 15.7 SSW 11 19 1027.9 - 0.0 - - 10 - - - -
20/01:30pm 15.8 S 11 20 1027.9 - 0.0 - - 10 - - - -
20/01:00pm 15.2 S 11 20 1027.9 - 0.0 - - 10 - - - -
20/12:30pm 15.1 S 11 17 1027.9 - 0.0 - - 10 - - - -
20/12:00pm 14.9 SSW 10 18 1028.0 - 0.0 - - 10 - - - -
20/11:30am 14.8 SSW 10 21 1027.9 - 0.0 - - 10 - - - -
20/11:00am 14.8 S 9 17 1027.9 - 0.0 - - 10 - - - -
20/10:30am 14.8 S 10 17 1027.8 - 0.0 - - 10 - - - -
20/10:00am 13.4 SSW 9 15 1027.7 - 0.0 - - 10 - - - -
20/09:30am 14.0 SSW 6 12 1027.3 - 0.0 - - 10 - - - -
20/09:00am 13.4 SW 5 11 1027.0 - 2.6 - - 10 - - - -
20/08:30am 13.7 WSW 4 11 1026.7 - 2.6 - - 10 - - - -
20/08:00am 12.9 SSW 7 13 1026.4 - 2.6 - - 10 - - - -
20/07:30am 12.0 W 5 11 1026.1 - 2.6 - - 10 - - - -
20/07:00am 11.3 W 3 6 1025.8 - 2.6 - - 10 - - - -
20/06:30am 11.5 W 3 6 1025.4 - 2.6 - - 10 - - - -
20/06:00am 11.4 W 3 7 1024.9 - 2.6 - - 10 - - - -
20/05:30am 11.8 W 3 8 1024.5 - 2.6 - - 10 - - - -
20/05:00am 12.3 W 5 15 1024.2 - 2.6 - - 10 - - - -
20/04:30am 12.1 W 3 6 1023.9 - 2.6 - - 10 - - - -
20/04:00am 11.8 W 4 8 1023.9 - 2.6 - - 10 - - - -
20/03:30am 12.2 WSW 5 7 1023.8 - 2.6 - - 10 - - - -
20/03:00am 12.4 W 3 6 1023.5 - 2.6 - - 10 - - - -
20/02:30am 12.9 WSW 4 7 1023.7 - 2.6 - - 10 - - - -
20/02:00am 13.2 W 3 7 1023.7 - 2.6 - - 10 - - - -
20/01:30am 13.6 WSW 2 5 1023.9 - 2.6 - - 10 - - - -
20/01:00am 13.5 W 3 5 1024.0 - 2.6 - - 10 - - - -
20/12:30am 13.4 W 3 8 1024.0 - 2.6 - - 10 - - - -
20/12:00am 13.7 W 4 7 1024.2 - 2.6 - - 10 - - - -
 
Date/Time
EDT
Temp
°C
Wind Pressure Rain since
9am
mm
Weather Cloud Vis
km
Sea
Height
m
Swell
Dir  Spd
kts
Gust
kts
hPa Trend Height
m
Period
s
Dir
19/11:30pm 14.0 W 4 8 1023.9 - 2.6 - - 10 - - - -
19/11:00pm 14.4 WSW 6 12 1023.9 - 2.6 - - 10 - - - -
19/10:30pm 14.7 W 5 9 1023.9 - 2.6 - - 10 - - - -
19/10:00pm 15.0 W 3 7 1023.7 - 2.6 - - 10 - - - -
19/09:30pm 15.4 SW 5 10 1023.6 - 2.6 - - 10 - - - -
19/09:00pm 15.3 S 5 8 1022.9 - 2.6 - - 10 - - - -
19/08:30pm 15.2 S 4 11 1022.4 - 2.6 - - 10 - - - -
19/08:00pm 15.3 S 7 13 1021.7 - 2.6 - - 10 - - - -
19/07:30pm 15.4 S 8 19 1020.9 - 2.6 - - 10 - - - -
19/07:00pm 16.0 S 8 16 1020.1 - 2.6 - - 10 - - - -
19/06:30pm 16.6 S 8 13 1019.1 - 2.6 - - 10 - - - -
19/06:00pm 17.3 SSE 7 12 1018.2 - 2.6 - - 10 - - - -
19/05:30pm 17.8 S 7 13 1017.4 - 2.6 - - 10 - - - -
19/05:00pm 18.2 S 8 17 1017.0 - 2.6 - - 10 - - - -
19/04:30pm 21.0 SSW 7 15 1016.0 - 2.6 - - 10 - - - -
19/04:00pm 22.7 SSW 5 8 1015.6 - 2.6 - - 10 - - - -
19/03:30pm 23.1 S 4 7 1015.6 - 2.6 - - 10 - - - -
19/03:00pm 23.5 S 4 7 1015.3 - 2.6 - - 10 - - - -
19/02:30pm 24.9 N 6 10 1015.1 - 2.6 - - 10 - - - -
19/02:00pm 25.3 NNW 9 14 1015.2 - 2.6 - - 10 - - - -
19/01:30pm 24.8 N 9 14 1015.4 - 2.6 - - 10 - - - -
19/01:00pm 23.0 N 4 6 1015.7 - 2.6 - - 10 - - - -
19/12:30pm 20.6 CALM 0 0 1015.9 - 2.6 - - 10 - - - -
19/12:00pm 19.7 ENE 3 6 1015.9 - 2.6 Showers - 10 - - - -

Other Formats:

Comma delimited format used in spreadsheet applications
http://www.bom.gov.au/fwo/IDV60701/IDV60701.95936.axf

JavaScript Object Notation format (JSON) in row-major order
http://www.bom.gov.au/fwo/IDV60701/IDV60701.95936.json